Time;durP1;ratioP1;P1;durP2;ratioP2;P2;SDS_P1;SDS_P2;PMS_P1;PMS_P2;Temp;Humidity;BMP_temperature;BMP_pressure;BME280_temperature;BME280_humidity;BME280_pressure;Samples;Min_cycle;Max_cycle;Signal;HPM_P1;HPM_P2
2023/01/29 00:00:17;;;;;;;27.85;18.23;;;;;;;-2.46;95.36;103037.69;5031809;28;20033;-53
2023/01/29 00:02:42;;;;;;;27.45;18.52;;;;;;;-2.47;95.52;103041.13;5032416;28;20033;-54
2023/01/29 00:05:08;;;;;;;27.42;18.52;;;;;;;-2.46;96.16;103048.09;5019983;28;20163;-55
2023/01/29 00:07:33;;;;;;;28.55;18.45;;;;;;;-2.47;95.91;103043.75;5043385;28;20028;-53
2023/01/29 00:09:58;;;;;;;28.13;17.88;;;;;;;-2.46;96.20;103038.56;5030451;28;20024;-55
2023/01/29 00:12:24;;;;;;;26.90;17.35;;;;;;;-2.46;96.05;103032.50;5025185;28;20626;-54
2023/01/29 00:14:49;;;;;;;26.13;17.85;;;;;;;-2.47;95.93;103036.81;5031721;28;20017;-54
2023/01/29 00:17:14;;;;;;;30.33;18.90;;;;;;;-2.47;95.99;103025.53;5031315;28;20372;-55
2023/01/29 00:19:40;;;;;;;28.75;18.35;;;;;;;-2.49;96.49;103025.50;5031914;28;20064;-54
2023/01/29 00:22:05;;;;;;;27.02;17.98;;;;;;;-2.49;96.72;103028.09;5022340;28;20055;-53
2023/01/29 00:24:30;;;;;;;28.13;17.80;;;;;;;-2.49;96.38;103017.69;5031150;28;20482;-52
2023/01/29 00:26:56;;;;;;;27.52;18.27;;;;;;;-2.47;96.48;103018.59;5027803;28;20026;-53
2023/01/29 00:29:21;;;;;;;28.25;18.42;;;;;;;-2.45;96.62;103019.50;5031040;28;20025;-53
2023/01/29 00:31:46;;;;;;;30.33;18.92;;;;;;;-2.44;96.42;103010.81;5031648;28;20029;-52
2023/01/29 00:34:11;;;;;;;27.35;17.95;;;;;;;-2.43;96.75;103012.59;5028484;28;20420;-52
2023/01/29 00:36:37;;;;;;;29.15;18.52;;;;;;;-2.43;96.96;103012.59;5023910;28;20021;-52
2023/01/29 00:39:09;;;;;;;28.90;18.77;;;;;;;-2.42;96.83;103019.50;5039086;28;20388;-53
2023/01/29 00:47:29;;;;;;;29.65;19.05;;;;;;;-2.38;97.27;102998.75;5031199;28;20091;-53
2023/01/29 00:49:49;;;;;;;29.85;19.48;;;;;;;-2.36;97.23;102992.72;5030559;28;20050;-54
2023/01/29 00:52:23;;;;;;;29.73;19.15;;;;;;;-2.36;97.37;102990.09;5031590;28;20028;-53
2023/01/29 00:54:52;;;;;;;28.77;18.33;;;;;;;-2.33;97.42;102984.03;5031427;28;20034;-56
2023/01/29 00:57:18;;;;;;;30.17;18.92;;;;;;;-2.34;97.31;102980.59;5020619;28;20535;-52
2023/01/29 00:59:43;;;;;;;30.27;18.48;;;;;;;-2.33;97.34;102976.25;5027589;28;20036;-53
2023/01/29 01:04:53;;;;;;;29.52;18.85;;;;;;;-2.33;97.31;102971.03;5029603;28;20036;-55
2023/01/29 01:07:18;;;;;;;29.15;17.83;;;;;;;-2.35;97.31;102971.00;5031857;28;20411;-53
2023/01/29 01:12:28;;;;;;;29.95;18.38;;;;;;;-2.34;97.09;102974.50;5035641;28;20185;-56
2023/01/29 01:14:53;;;;;;;31.23;19.50;;;;;;;-2.35;97.12;102983.16;5035309;28;20025;-53
2023/01/29 01:17:18;;;;;;;30.60;19.75;;;;;;;-2.34;97.41;102982.31;5028815;28;20076;-52
2023/01/29 01:19:44;;;;;;;30.95;20.58;;;;;;;-2.33;97.42;102986.66;5035279;28;20108;-53
2023/01/29 01:22:09;;;;;;;29.48;19.65;;;;;;;-2.34;97.30;102991.00;5035369;28;20432;-53
2023/01/29 01:24:35;;;;;;;31.33;20.23;;;;;;;-2.33;97.44;102979.75;5035253;28;20451;-53
2023/01/29 01:27:00;;;;;;;31.42;20.13;;;;;;;-2.34;97.54;102979.72;5025788;28;20038;-53
2023/01/29 01:29:25;;;;;;;31.85;20.58;;;;;;;-2.35;97.26;102978.81;5034737;28;20029;-54
2023/01/29 01:31:52;;;;;;;32.38;20.77;;;;;;;-2.34;97.52;102977.13;5035107;28;20036;-55
2023/01/29 01:34:18;;;;;;;32.15;21.00;;;;;;;-2.36;97.64;102979.69;5034704;28;20391;-54
2023/01/29 01:36:44;;;;;;;32.15;19.92;;;;;;;-2.37;97.61;102980.53;5027367;28;20030;-53
2023/01/29 01:39:09;;;;;;;32.30;21.00;;;;;;;-2.37;97.62;102984.88;5034527;28;20022;-57
2023/01/29 01:41:35;;;;;;;33.90;21.17;;;;;;;-2.39;97.68;102982.25;5035316;28;20032;-54
2023/01/29 01:44:02;;;;;;;37.33;21.48;;;;;;;-2.40;97.70;102983.09;5035070;28;20058;-52
2023/01/29 01:46:29;;;;;;;32.20;20.77;;;;;;;-2.41;97.50;102981.38;5028084;28;20029;-53
2023/01/29 01:49:14;;;;;;;34.05;21.77;;;;;;;-2.44;97.61;102973.53;5034769;28;20060;-52
2023/01/29 01:51:44;;;;;;;34.03;21.63;;;;;;;-2.45;97.57;102977.88;5033429;28;20033;-52
2023/01/29 01:54:17;;;;;;;33.30;21.10;;;;;;;-2.45;97.83;102983.06;5035196;28;20391;-53
2023/01/29 01:56:46;;;;;;;32.92;21.65;;;;;;;-2.46;97.70;102980.44;5031561;28;20018;-52
2023/01/29 01:59:15;;;;;;;33.50;20.95;;;;;;;-2.47;97.45;102979.56;5026213;28;20029;-53
2023/01/29 02:01:48;;;;;;;34.88;22.65;;;;;;;-2.50;97.53;102982.16;5034299;28;20029;-55
2023/01/29 02:10:02;;;;;;;34.45;21.60;;;;;;;-2.51;97.49;102993.41;5031964;28;20526;-52
2023/01/29 02:12:30;;;;;;;35.10;22.10;;;;;;;-2.52;97.90;102991.63;5028484;28;20026;-52
2023/01/29 02:14:55;;;;;;;35.42;23.70;;;;;;;-2.52;98.03;102991.63;5037514;28;20033;-55
2023/01/29 02:17:21;;;;;;;35.72;22.58;;;;;;;-2.52;97.80;102990.78;5034009;28;20056;-52
2023/01/29 02:20:14;;;;;;;38.88;23.60;;;;;;;-2.52;98.01;102990.78;5028554;28;20030;-53
2023/01/29 02:22:54;;;;;;;34.42;22.38;;;;;;;-2.55;98.00;102988.13;5034092;28;20034;-52
2023/01/29 02:25:35;;;;;;;35.85;23.05;;;;;;;-2.54;98.15;102993.34;5027917;28;20034;-53
2023/01/29 02:28:25;;;;;;;35.78;23.13;;;;;;;-2.53;98.20;103002.91;5026660;28;20446;-52
2023/01/29 02:31:20;;;;;;;35.65;21.70;;;;;;;-2.54;98.28;103001.16;5032810;28;20036;-55
2023/01/29 02:34:07;;;;;;;36.22;24.83;;;;;;;-2.50;98.47;103005.56;5033931;28;20026;-52
2023/01/29 02:36:56;;;;;;;35.58;22.42;;;;;;;-2.48;98.40;103006.44;5030794;28;20048;-53
2023/01/29 02:39:47;;;;;;;36.13;22.30;;;;;;;-2.48;98.78;103003.84;5026708;28;20167;-52
2023/01/29 02:42:26;;;;;;;36.72;22.65;;;;;;;-2.47;98.97;103004.72;5022924;28;20030;-52
2023/01/29 02:45:01;;;;;;;38.13;23.45;;;;;;;-2.46;98.94;102991.72;5027488;28;20357;-52
2023/01/29 02:47:55;;;;;;;33.03;21.45;;;;;;;-2.44;99.33;102990.00;5021871;28;20037;-52
2023/01/29 02:50:37;;;;;;;38.45;22.27;;;;;;;-2.43;99.12;102991.75;5021516;28;20046;-53
2023/01/29 02:53:14;;;;;;;33.92;21.42;;;;;;;-2.40;98.93;102988.31;5030445;28;20041;-54
2023/01/29 02:55:58;;;;;;;36.88;23.42;;;;;;;-2.36;99.45;102986.66;5026468;28;20028;-56
2023/01/29 02:58:23;;;;;;;35.85;22.33;;;;;;;-2.34;99.48;102984.91;5039171;28;20029;-52
2023/01/29 03:00:52;;;;;;;36.27;22.60;;;;;;;-2.32;99.34;102975.41;5032966;28;20550;-52
2023/01/29 03:03:27;;;;;;;36.25;23.13;;;;;;;-2.30;99.42;102986.69;5032764;28;20299;-52
2023/01/29 03:05:58;;;;;;;35.20;23.35;;;;;;;-2.27;99.19;102995.41;5033152;28;20036;-53
2023/01/29 03:08:56;;;;;;;35.05;22.55;;;;;;;-2.23;99.62;102985.94;5030529;28;20090;-55
2023/01/29 03:11:22;;;;;;;35.72;23.55;;;;;;;-2.22;99.23;102997.19;5004035;28;20494;-56
2023/01/29 03:13:52;;;;;;;33.65;22.92;;;;;;;-2.18;99.43;102980.75;5033580;28;20136;-55
2023/01/29 03:16:50;;;;;;;33.90;23.10;;;;;;;-2.13;99.70;102985.16;5032508;28;20467;-56
2023/01/29 03:19:22;;;;;;;37.45;22.80;;;;;;;-2.12;99.44;102984.28;5007690;28;20034;-54
2023/01/29 03:22:00;;;;;;;32.20;21.27;;;;;;;-2.10;99.48;102984.31;5039527;28;20029;-56
2023/01/29 03:32:55;;;;;;;34.42;21.65;;;;;;;-1.99;99.34;102981.84;5032753;28;20295;-55
2023/01/29 03:35:34;;;;;;;34.38;20.67;;;;;;;-1.96;99.30;102977.53;5032079;28;20025;-55
2023/01/29 03:38:00;;;;;;;31.23;20.95;;;;;;;-1.92;99.45;102970.59;5032464;28;20027;-56
2023/01/29 03:40:33;;;;;;;34.83;21.88;;;;;;;-1.93;99.39;102967.16;5033031;28;20399;-55
2023/01/29 03:43:12;;;;;;;31.05;21.30;;;;;;;-1.87;99.37;102971.53;5023045;28;20050;-55
2023/01/29 03:46:00;;;;;;;35.55;23.10;;;;;;;-1.85;99.28;102975.00;5032715;28;20079;-55
2023/01/29 03:48:37;;;;;;;32.53;21.77;;;;;;;-1.81;99.36;102975.94;5025409;28;20033;-55
2023/01/29 03:51:31;;;;;;;31.60;21.30;;;;;;;-1.79;99.38;102964.66;5028115;28;20372;-52
2023/01/29 03:54:25;;;;;;;35.50;23.73;;;;;;;-1.76;99.24;102958.63;5032320;28;20395;-55
2023/01/29 03:56:59;;;;;;;34.28;21.38;;;;;;;-1.75;99.49;102953.41;5026776;28;20022;-55
2023/01/29 03:59:38;;;;;;;35.15;21.77;;;;;;;-1.75;99.53;102949.91;5030710;28;20036;-52
2023/01/29 04:02:09;;;;;;;35.17;22.90;;;;;;;-1.72;99.62;102953.41;5020569;28;20495;-52
2023/01/29 04:04:36;;;;;;;36.63;23.27;;;;;;;-1.69;99.48;102956.06;5039374;28;20037;-54
2023/01/29 04:07:16;;;;;;;35.53;22.13;;;;;;;-1.65;99.55;102956.94;5031906;28;20030;-52
2023/01/29 04:09:50;;;;;;;35.60;22.38;;;;;;;-1.63;99.49;102957.84;5025397;28;20033;-53
2023/01/29 04:12:22;;;;;;;35.35;21.73;;;;;;;-1.61;99.28;102945.72;5031031;28;20029;-55
2023/01/29 04:14:50;;;;;;;33.33;21.75;;;;;;;-1.58;99.01;102944.84;5021562;28;20026;-54
2023/01/29 04:17:20;;;;;;;33.45;22.40;;;;;;;-1.56;99.07;102940.53;5031909;28;20053;-56
2023/01/29 04:19:46;;;;;;;36.38;22.42;;;;;;;-1.53;99.28;102937.97;5027752;28;21065;-55
2023/01/29 04:22:23;;;;;;;34.22;21.70;;;;;;;-1.52;99.26;102931.88;5032223;28;20025;-55
2023/01/29 04:24:50;;;;;;;36.08;22.77;;;;;;;-1.50;99.23;102935.34;5031897;28;20026;-52
2023/01/29 04:27:26;;;;;;;34.50;22.80;;;;;;;-1.48;99.17;102931.06;5027095;28;20022;-53
2023/01/29 04:30:08;;;;;;;40.47;23.20;;;;;;;-1.45;99.40;102938.88;5029150;28;20037;-55
2023/01/29 04:32:59;;;;;;;37.58;22.00;;;;;;;-1.43;99.23;102934.56;5025140;28;20040;-55
2023/01/29 04:35:30;;;;;;;36.22;22.95;;;;;;;-1.40;99.23;102941.50;5023598;28;20036;-53
2023/01/29 04:38:16;;;;;;;35.28;22.83;;;;;;;-1.39;99.01;102928.50;5033315;28;20021;-53
2023/01/29 04:41:07;;;;;;;35.65;22.75;;;;;;;-1.35;99.20;102929.38;5027380;28;20067;-55
2023/01/29 04:44:25;;;;;;;37.00;23.55;;;;;;;-1.31;99.00;102921.59;5030091;28;20077;-53
2023/01/29 04:46:55;;;;;;;36.75;23.27;;;;;;;-1.31;98.89;102916.38;5004958;28;20100;-55
2023/01/29 04:49:21;;;;;;;38.60;24.50;;;;;;;-1.29;98.79;102905.09;5038070;28;20071;-53
2023/01/29 04:52:15;;;;;;;35.42;23.77;;;;;;;-1.26;99.06;102903.38;5035136;28;20033;-52
2023/01/29 04:55:04;;;;;;;38.65;23.92;;;;;;;-1.24;98.88;102901.66;5037296;28;20109;-53
2023/01/29 04:57:44;;;;;;;35.90;23.48;;;;;;;-1.23;98.96;102886.88;5036557;28;20026;-52
2023/01/29 05:00:22;;;;;;;39.63;24.73;;;;;;;-1.23;99.09;102887.75;5038504;28;20033;-55
2023/01/29 05:02:48;;;;;;;38.10;23.60;;;;;;;-1.21;99.13;102890.38;5038131;28;20025;-54
2023/01/29 05:05:16;;;;;;;36.70;24.27;;;;;;;-1.21;98.92;102879.94;5029548;28;20025;-53
2023/01/29 05:07:42;;;;;;;38.87;24.37;;;;;;;-1.17;98.88;102884.31;5038179;28;20021;-53
2023/01/29 05:10:09;;;;;;;37.80;23.80;;;;;;;-1.16;98.80;102878.22;5020414;28;20037;-53
2023/01/29 05:12:36;;;;;;;38.13;25.50;;;;;;;-1.15;99.16;102870.41;5038024;28;20069;-52
2023/01/29 05:15:07;;;;;;;39.33;26.77;;;;;;;-1.14;98.94;102879.97;5028043;28;20038;-53
2023/01/29 05:17:32;;;;;;;38.42;25.42;;;;;;;-1.12;99.01;102885.19;5038800;28;20028;-55
2023/01/29 05:19:57;;;;;;;40.30;25.67;;;;;;;-1.11;98.78;102879.13;5038455;28;20025;-55
2023/01/29 05:22:23;;;;;;;41.45;25.85;;;;;;;-1.09;99.11;102869.56;5038364;28;20030;-54
2023/01/29 05:24:49;;;;;;;42.55;27.23;;;;;;;-1.08;98.94;102873.03;5028084;28;20475;-56
2023/01/29 05:30:06;;;;;;;38.28;25.67;;;;;;;-1.03;98.78;102863.50;5029900;28;20107;-52
2023/01/29 05:32:31;;;;;;;41.67;26.77;;;;;;;-1.01;99.08;102861.78;5038256;28;20029;-56
2023/01/29 05:34:56;;;;;;;38.15;25.25;;;;;;;-1.01;99.07;102853.97;5035145;28;20045;-56
2023/01/29 05:37:21;;;;;;;40.55;27.75;;;;;;;-1.01;99.08;102854.81;5038130;28;20036;-53
2023/01/29 05:39:47;;;;;;;38.97;25.10;;;;;;;-0.99;99.10;102849.63;5036704;28;20548;-55
2023/01/29 05:42:12;;;;;;;40.58;26.10;;;;;;;-0.98;99.02;102859.19;5038001;28;20030;-57
2023/01/29 05:44:37;;;;;;;39.95;25.92;;;;;;;-0.96;99.02;102862.69;5037698;28;20013;-55
2023/01/29 05:47:03;;;;;;;36.40;25.30;;;;;;;-0.95;98.97;102864.41;5037377;28;20040;-53
2023/01/29 05:49:28;;;;;;;38.42;25.77;;;;;;;-0.95;99.16;102860.06;5037399;28;20052;-56
2023/01/29 05:51:53;;;;;;;40.67;27.08;;;;;;;-0.94;98.96;102864.41;5037904;28;20148;-57
2023/01/29 05:54:18;;;;;;;43.75;27.77;;;;;;;-0.93;98.73;102866.16;5036546;28;20021;-55
2023/01/29 05:56:44;;;;;;;41.22;27.88;;;;;;;-0.91;98.58;102865.31;5030747;28;20022;-54
2023/01/29 05:59:09;;;;;;;41.53;28.38;;;;;;;-0.91;98.74;102868.78;5034483;28;20048;-54
2023/01/29 06:01:35;;;;;;;42.22;28.08;;;;;;;-0.88;98.80;102870.50;5034859;28;20029;-55
2023/01/29 06:04:00;;;;;;;44.58;28.10;;;;;;;-0.89;99.02;102867.03;5034391;28;21595;-56
2023/01/29 06:06:25;;;;;;;43.08;28.48;;;;;;;-0.87;99.01;102869.66;5030745;28;20038;-56
2023/01/29 06:08:51;;;;;;;39.30;27.23;;;;;;;-0.85;98.84;102867.91;5034223;28;20476;-55
2023/01/29 06:11:17;;;;;;;39.85;28.30;;;;;;;-0.85;99.13;102870.53;5031631;28;20439;-60
2023/01/29 06:13:43;;;;;;;45.03;29.58;;;;;;;-0.84;98.99;102880.97;5032051;28;20021;-55
2023/01/29 06:16:11;;;;;;;44.25;29.48;;;;;;;-0.83;99.23;102874.91;5036366;28;20462;-56
2023/01/29 06:18:37;;;;;;;43.30;29.33;;;;;;;-0.81;98.91;102881.00;5033858;28;20029;-56
2023/01/29 06:21:03;;;;;;;41.92;28.67;;;;;;;-0.81;98.65;102891.44;5033585;28;20383;-53
2023/01/29 06:23:29;;;;;;;42.72;30.73;;;;;;;-0.78;99.00;102890.56;5035594;28;20435;-56
2023/01/29 06:26:08;;;;;;;44.45;30.25;;;;;;;-0.77;98.75;102903.63;5034429;28;20443;-55
2023/01/29 06:28:33;;;;;;;42.28;29.40;;;;;;;-0.75;98.64;102903.59;5023937;28;20053;-53
2023/01/29 06:31:01;;;;;;;46.08;30.35;;;;;;;-0.74;98.61;102900.16;5034104;28;20053;-53
2023/01/29 06:33:26;;;;;;;42.67;29.45;;;;;;;-0.72;98.48;102889.72;5028267;28;20033;-56
2023/01/29 06:35:56;;;;;;;44.13;29.40;;;;;;;-0.71;98.68;102875.81;5033780;28;20044;-54
2023/01/29 06:38:22;;;;;;;42.88;29.25;;;;;;;-0.70;98.74;102856.66;5033943;28;20033;-56
2023/01/29 06:40:47;;;;;;;43.20;29.67;;;;;;;-0.71;98.73;102853.19;5033735;28;20030;-56
2023/01/29 06:43:12;;;;;;;43.55;29.27;;;;;;;-0.71;98.50;102842.75;5031708;28;20041;-56
2023/01/29 06:45:38;;;;;;;46.10;29.20;;;;;;;-0.71;98.44;102844.50;5033658;28;20116;-53
2023/01/29 06:48:03;;;;;;;42.75;28.65;;;;;;;-0.70;98.98;102856.66;5034261;28;20033;-56
2023/01/29 06:50:28;;;;;;;44.33;29.05;;;;;;;-0.70;98.78;102868.00;5025599;28;20559;-56
2023/01/29 06:52:54;;;;;;;44.75;30.40;;;;;;;-0.70;98.89;102848.84;5033581;28;20495;-55
2023/01/29 06:55:19;;;;;;;41.92;29.02;;;;;;;-0.68;98.50;102854.91;5032173;28;20025;-57
2023/01/29 06:57:44;;;;;;;49.08;28.05;;;;;;;-0.68;98.89;102839.25;5037120;28;20017;-56
2023/01/29 07:00:10;;;;;;;41.92;28.80;;;;;;;-0.68;98.83;102840.16;5039395;28;20029;-55
2023/01/29 07:02:35;;;;;;;47.85;29.40;;;;;;;-0.68;98.89;102844.47;5032977;28;20021;-56
2023/01/29 07:05:01;;;;;;;45.65;30.65;;;;;;;-0.67;98.58;102843.63;5031569;28;20064;-53
2023/01/29 07:07:26;;;;;;;41.28;27.65;;;;;;;-0.68;98.58;102840.16;5032020;28;20038;-53
2023/01/29 07:09:51;;;;;;;42.70;28.75;;;;;;;-0.67;98.37;102847.09;5033423;28;20024;-56
2023/01/29 07:12:16;;;;;;;42.45;27.65;;;;;;;-0.64;98.34;102843.63;5033138;28;20026;-53
2023/01/29 07:14:42;;;;;;;41.88;28.00;;;;;;;-0.63;98.47;102845.41;5026292;28;20029;-56
2023/01/29 07:17:07;;;;;;;42.03;26.83;;;;;;;-0.63;98.56;102850.63;5026427;28;20490;-53
2023/01/29 07:19:32;;;;;;;42.35;28.23;;;;;;;-0.62;98.43;102850.59;5038024;28;20112;-52
2023/01/29 07:22:01;;;;;;;40.75;27.45;;;;;;;-0.61;98.32;102852.34;5029400;28;20034;-54
2023/01/29 07:24:26;;;;;;;42.83;29.45;;;;;;;-0.60;98.14;102855.81;5032689;28;20033;-56
2023/01/29 07:26:52;;;;;;;44.17;29.95;;;;;;;-0.59;98.46;102853.22;5017084;28;20030;-53
2023/01/29 07:29:17;;;;;;;44.90;30.15;;;;;;;-0.59;98.67;102854.97;5030900;28;20030;-53
2023/01/29 07:31:43;;;;;;;41.85;27.92;;;;;;;-0.58;98.29;102857.56;5030856;28;20022;-56
2023/01/29 07:34:08;;;;;;;44.22;29.25;;;;;;;-0.57;98.34;102859.31;5031477;28;20056;-52
2023/01/29 07:36:33;;;;;;;44.17;28.63;;;;;;;-0.56;98.50;102857.59;5029356;28;20453;-55
2023/01/29 07:38:58;;;;;;;42.33;28.45;;;;;;;-0.57;98.47;102843.66;5026173;28;20046;-53
2023/01/29 07:41:24;;;;;;;40.35;27.98;;;;;;;-0.56;98.78;102845.41;5022211;28;20033;-53
2023/01/29 07:43:49;;;;;;;42.58;29.13;;;;;;;-0.54;98.40;102841.94;5014446;28;20837;-56
2023/01/29 07:46:14;;;;;;;42.45;27.67;;;;;;;-0.54;98.21;102840.19;5016262;28;20108;-56
2023/01/29 07:48:39;;;;;;;41.88;28.00;;;;;;;-0.52;98.21;102842.78;5013681;28;20510;-55
2023/01/29 07:51:05;;;;;;;44.22;28.95;;;;;;;-0.52;98.08;102848.88;5014914;28;20029;-55
2023/01/29 07:53:30;;;;;;;42.53;28.42;;;;;;;-0.51;98.12;102842.78;5013919;28;20121;-56
2023/01/29 07:55:56;;;;;;;44.42;28.17;;;;;;;-0.51;97.99;102855.00;5016609;28;20033;-56
2023/01/29 07:58:21;;;;;;;40.38;27.70;;;;;;;-0.50;98.08;102855.00;5014497;28;20034;-54
2023/01/29 08:00:46;;;;;;;41.15;27.80;;;;;;;-0.49;97.95;102850.63;5019331;28;20112;-52
2023/01/29 08:03:17;;;;;;;40.33;27.73;;;;;;;-0.48;97.99;102847.13;5022395;28;20033;-52
2023/01/29 08:05:43;;;;;;;41.78;28.33;;;;;;;-0.47;98.12;102846.28;5030274;28;20025;-55
2023/01/29 08:08:09;;;;;;;42.95;28.50;;;;;;;-0.47;97.97;102843.66;5015592;28;20058;-55
2023/01/29 08:10:35;;;;;;;44.03;28.58;;;;;;;-0.46;97.84;102842.81;5027545;28;20060;-53
2023/01/29 08:13:02;;;;;;;43.15;28.63;;;;;;;-0.45;97.90;102837.59;5016819;28;20044;-56
2023/01/29 08:15:28;;;;;;;39.28;27.52;;;;;;;-0.45;97.41;102834.09;5018619;28;21001;-52
2023/01/29 08:17:54;;;;;;;42.53;29.45;;;;;;;-0.44;97.65;102835.84;5019954;28;20026;-53
2023/01/29 08:20:20;;;;;;;41.20;29.10;;;;;;;-0.44;97.61;102833.25;5026382;28;20037;-54
2023/01/29 08:22:46;;;;;;;39.92;28.17;;;;;;;-0.43;97.83;102841.06;5020379;28;20451;-53
2023/01/29 08:25:12;;;;;;;44.25;29.63;;;;;;;-0.41;97.60;102833.25;5023713;28;20124;-52
2023/01/29 08:27:37;;;;;;;41.88;27.92;;;;;;;-0.39;97.86;102834.13;5021208;28;20029;-56
2023/01/29 08:30:04;;;;;;;42.50;27.85;;;;;;;-0.38;97.92;102828.03;5029656;28;20549;-55
2023/01/29 08:32:30;;;;;;;42.15;28.13;;;;;;;-0.35;97.37;102822.81;5025295;28;20077;-56
2023/01/29 08:34:55;;;;;;;40.30;27.77;;;;;;;-0.35;97.36;102829.75;5017252;28;20057;-54
2023/01/29 08:37:20;;;;;;;39.22;27.15;;;;;;;-0.34;97.36;102828.91;5018784;28;20026;-55
2023/01/29 08:39:45;;;;;;;39.38;26.98;;;;;;;-0.32;97.27;102821.94;5017307;28;20376;-54
2023/01/29 08:42:11;;;;;;;42.08;28.00;;;;;;;-0.33;97.39;102823.69;5019228;28;20036;-52
2023/01/29 08:44:36;;;;;;;39.55;26.98;;;;;;;-0.32;97.87;102809.75;5016812;28;20026;-52
2023/01/29 08:47:02;;;;;;;41.25;27.92;;;;;;;-0.31;97.74;102808.88;5020103;28;20480;-52
2023/01/29 08:49:28;;;;;;;40.33;27.70;;;;;;;-0.31;97.71;102798.44;5016269;28;20152;-53
2023/01/29 08:51:55;;;;;;;39.60;26.92;;;;;;;-0.31;97.37;102803.66;5022211;28;20450;-55
2023/01/29 08:54:21;;;;;;;39.22;27.00;;;;;;;-0.30;97.51;102797.56;5024683;28;20037;-53
2023/01/29 08:56:46;;;;;;;42.30;26.98;;;;;;;-0.29;97.17;102801.91;5028484;28;20104;-54
2023/01/29 08:59:12;;;;;;;39.70;27.30;;;;;;;-0.26;97.38;102803.66;5028342;28;20153;-54
2023/01/29 09:01:37;;;;;;;38.00;26.48;;;;;;;-0.26;97.47;102795.84;5027435;28;20022;-53
2023/01/29 09:04:02;;;;;;;38.33;26.27;;;;;;;-0.25;97.23;102806.28;5017144;28;20084;-53
2023/01/29 09:06:27;;;;;;;40.15;26.02;;;;;;;-0.23;97.71;102809.75;5021211;28;20539;-54
2023/01/29 09:08:53;;;;;;;40.67;27.52;;;;;;;-0.20;97.75;102808.88;5014220;28;20467;-53
2023/01/29 09:11:18;;;;;;;38.10;26.10;;;;;;;-0.19;97.38;102808.88;5026922;28;20022;-55
2023/01/29 09:13:43;;;;;;;40.38;26.02;;;;;;;-0.17;97.18;102805.41;5023391;28;20661;-53
2023/01/29 09:16:09;;;;;;;38.00;25.50;;;;;;;-0.18;97.15;102804.53;5026921;28;20033;-56
2023/01/29 09:18:34;;;;;;;39.42;25.70;;;;;;;-0.14;97.37;102800.19;5014541;28;20574;-51
2023/01/29 09:21:01;;;;;;;38.25;25.75;;;;;;;-0.12;96.93;102804.50;5016641;28;20034;-54
2023/01/29 09:23:27;;;;;;;36.05;24.02;;;;;;;-0.09;97.05;102795.81;5017973;28;20030;-54
2023/01/29 09:25:52;;;;;;;34.83;24.48;;;;;;;-0.08;96.58;102793.22;5020824;28;20033;-54
2023/01/29 09:28:18;;;;;;;34.22;23.20;;;;;;;-0.06;95.87;102794.06;5013024;28;20537;-56
2023/01/29 09:30:43;;;;;;;36.08;23.85;;;;;;;-0.04;96.25;102794.06;5032678;28;20029;-55
2023/01/29 09:33:09;;;;;;;34.08;23.00;;;;;;;-0.01;96.31;102794.06;5022385;28;20025;-56
2023/01/29 09:35:34;;;;;;;34.75;24.88;;;;;;;0.01;96.03;102794.94;5033797;28;20456;-55
2023/01/29 09:38:00;;;;;;;35.45;23.38;;;;;;;0.03;95.53;102795.78;5033080;28;20099;-55
2023/01/29 09:40:46;;;;;;;37.97;23.98;;;;;;;0.06;96.12;102790.56;5025005;28;20017;-56
2023/01/29 09:43:17;;;;;;;35.97;24.20;;;;;;;0.08;95.43;102785.34;5027574;28;20041;-56
2023/01/29 09:46:06;;;;;;;33.78;23.42;;;;;;;0.10;95.28;102783.59;5029879;28;20116;-56
2023/01/29 09:48:35;;;;;;;34.38;22.70;;;;;;;0.13;95.39;102783.59;5028729;28;20030;-53
2023/01/29 09:51:05;;;;;;;37.67;24.07;;;;;;;0.15;95.09;102787.06;5027783;28;20061;-53
2023/01/29 09:53:52;;;;;;;37.38;24.30;;;;;;;0.18;94.75;102781.84;5032857;28;20040;-56
2023/01/29 09:56:27;;;;;;;36.25;22.45;;;;;;;0.22;94.59;102787.94;5025861;28;20045;-55
2023/01/29 09:58:55;;;;;;;32.13;21.95;;;;;;;0.21;94.78;102789.69;5030872;28;20044;-57
2023/01/29 10:01:31;;;;;;;34.22;22.10;;;;;;;0.26;94.98;102784.44;5030888;28;20036;-56
2023/01/29 10:04:18;;;;;;;35.15;23.92;;;;;;;0.29;94.53;102782.69;5029568;28;20365;-55
2023/01/29 10:07:01;;;;;;;32.20;22.00;;;;;;;0.33;94.69;102789.69;5025475;28;20040;-52
2023/01/29 10:09:42;;;;;;;31.30;21.10;;;;;;;0.37;93.98;102782.69;5026834;28;20037;-54
2023/01/29 10:12:22;;;;;;;31.63;21.20;;;;;;;0.40;93.79;102782.69;5027914;28;20412;-53
2023/01/29 10:15:01;;;;;;;28.83;20.63;;;;;;;0.44;93.72;102789.63;5024707;28;20032;-56
2023/01/29 10:17:54;;;;;;;30.45;20.10;;;;;;;0.50;93.12;102787.00;5030243;28;20033;-56
2023/01/29 10:20:40;;;;;;;28.48;20.00;;;;;;;0.54;92.75;102795.69;5026233;28;20113;-54
2023/01/29 10:23:17;;;;;;;30.38;20.30;;;;;;;0.58;92.51;102793.94;5025715;28;20116;-54
2023/01/29 10:25:45;;;;;;;31.75;20.08;;;;;;;0.60;92.26;102789.56;5027361;28;20031;-56
2023/01/29 10:28:22;;;;;;;31.35;20.40;;;;;;;0.65;91.96;102791.31;5029155;28;20478;-55
2023/01/29 10:30:57;;;;;;;29.08;20.10;;;;;;;0.68;91.85;102785.19;5012573;28;20048;-56
2023/01/29 10:33:34;;;;;;;27.95;19.30;;;;;;;0.72;91.43;102784.31;5025811;28;20026;-54
2023/01/29 10:36:06;;;;;;;30.05;20.27;;;;;;;0.73;91.91;102784.31;5017082;28;20084;-55
2023/01/29 10:38:42;;;;;;;30.75;20.60;;;;;;;0.77;91.33;102782.53;5014266;28;20033;-55
2023/01/29 10:41:10;;;;;;;29.25;19.27;;;;;;;0.79;90.60;102785.16;5014205;28;20028;-54
2023/01/29 10:44:13;;;;;;;30.65;20.48;;;;;;;0.81;90.77;102788.63;5012234;28;20038;-56
2023/01/29 10:46:44;;;;;;;31.52;19.90;;;;;;;0.82;91.13;102770.31;5015194;28;20301;-54
2023/01/29 10:49:46;;;;;;;32.00;19.48;;;;;;;0.86;90.85;102771.16;5013207;28;20033;-54
2023/01/29 10:52:14;;;;;;;28.38;20.35;;;;;;;0.86;90.59;102769.41;5014445;28;20386;-55
2023/01/29 10:54:55;;;;;;;28.83;19.27;;;;;;;0.87;90.14;102765.91;5014888;28;20060;-56
2023/01/29 10:57:45;;;;;;;33.28;21.05;;;;;;;0.91;90.18;102769.38;5014475;28;20040;-54
2023/01/29 11:00:19;;;;;;;26.25;18.25;;;;;;;0.91;89.89;102772.00;5016355;28;20233;-56
2023/01/29 11:02:47;;;;;;;28.13;18.95;;;;;;;0.94;89.72;102764.16;5012616;28;20022;-56
2023/01/29 11:05:40;;;;;;;29.25;19.20;;;;;;;0.99;90.27;102758.88;5013462;28;20404;-55
2023/01/29 11:08:11;;;;;;;28.38;19.08;;;;;;;0.99;89.93;102754.50;5014984;28;20479;-55
2023/01/29 11:10:43;;;;;;;30.38;19.17;;;;;;;1.03;89.60;102745.78;5019281;28;20029;-55
2023/01/29 11:13:13;;;;;;;26.75;18.83;;;;;;;1.06;89.74;102732.66;5017769;28;20087;-54
2023/01/29 11:15:39;;;;;;;27.58;18.45;;;;;;;1.12;89.35;102737.00;5021712;28;20037;-52
2023/01/29 11:18:12;;;;;;;26.80;18.67;;;;;;;1.13;88.40;102724.78;5020532;28;20030;-56
2023/01/29 11:20:39;;;;;;;26.63;18.65;;;;;;;1.14;89.23;102718.66;5021562;28;20038;-55
2023/01/29 11:23:05;;;;;;;25.88;18.55;;;;;;;1.16;88.36;102714.28;5017412;28;20037;-56
2023/01/29 11:25:31;;;;;;;27.83;18.60;;;;;;;1.17;88.56;102710.81;5018020;28;20157;-54
2023/01/29 11:28:00;;;;;;;28.48;18.58;;;;;;;1.17;88.21;102701.19;5019221;28;20037;-55
2023/01/29 11:30:37;;;;;;;28.90;18.58;;;;;;;1.22;88.74;102690.69;5017407;28;20037;-54
2023/01/29 11:33:18;;;;;;;26.20;18.05;;;;;;;1.25;88.72;102681.06;5019633;28;20037;-56
2023/01/29 11:35:43;;;;;;;29.27;19.75;;;;;;;1.29;88.47;102679.28;5019552;28;20030;-52
2023/01/29 11:38:15;;;;;;;28.67;18.45;;;;;;;1.34;88.04;102687.97;5018641;28;20048;-53
2023/01/29 11:40:40;;;;;;;30.40;20.08;;;;;;;1.37;87.93;102680.09;5020466;28;20032;-54
2023/01/29 11:43:25;;;;;;;29.83;19.13;;;;;;;1.41;88.23;102673.94;5015798;28;20125;-56
2023/01/29 11:45:54;;;;;;;27.67;18.52;;;;;;;1.42;87.93;102674.81;5017033;28;20032;-55
2023/01/29 11:48:20;;;;;;;;;;;;;;;1.48;89.08;102670.41;5013933;28;20116;-55
2023/01/29 11:50:56;;;;;;;30.48;17.58;;;;;;;1.51;87.46;102668.63;5011293;28;19918;-54
2023/01/29 11:53:44;;;;;;;27.60;18.90;;;;;;;1.56;87.26;102649.34;5013859;28;20439;-54
2023/01/29 11:56:33;;;;;;;28.85;19.63;;;;;;;1.61;87.28;102644.94;5014420;28;20127;-55